sensor_id;sensor_type;location;lat;lon;timestamp;P1;durP1;ratioP1;P2;durP2;ratioP2
47401;SDS011;33155;48.370;-3.750;2022-10-31T07:02:11;4.00;;;0.82;;
47401;SDS011;33155;48.370;-3.750;2022-10-31T07:04:37;0.73;;;0.70;;
47401;SDS011;33155;48.370;-3.750;2022-10-31T07:07:03;3.38;;;0.75;;
47401;SDS011;33155;48.370;-3.750;2022-10-31T07:09:28;1.77;;;0.68;;
47401;SDS011;33155;48.370;-3.750;2022-10-31T07:11:54;1.73;;;0.80;;
47401;SDS011;33155;48.370;-3.750;2022-10-31T07:14:19;3.15;;;0.80;;
47401;SDS011;33155;48.370;-3.750;2022-10-31T07:16:48;1.25;;;0.80;;
47401;SDS011;33155;48.370;-3.750;2022-10-31T07:19:15;1.63;;;1.02;;
47401;SDS011;33155;48.370;-3.750;2022-10-31T07:21:41;2.65;;;0.82;;
47401;SDS011;33155;48.370;-3.750;2022-10-31T07:24:06;7.13;;;1.80;;
47401;SDS011;33155;48.370;-3.750;2022-10-31T07:26:32;2.20;;;0.80;;
47401;SDS011;33155;48.370;-3.750;2022-10-31T07:28:57;3.42;;;1.30;;
47401;SDS011;33155;48.370;-3.750;2022-10-31T07:31:24;2.97;;;1.10;;
47401;SDS011;33155;48.370;-3.750;2022-10-31T07:33:49;5.15;;;1.65;;
47401;SDS011;33155;48.370;-3.750;2022-10-31T07:36:15;3.22;;;1.27;;
47401;SDS011;33155;48.370;-3.750;2022-10-31T07:38:40;1.60;;;0.90;;
47401;SDS011;33155;48.370;-3.750;2022-10-31T07:41:06;4.43;;;1.20;;
47401;SDS011;33155;48.370;-3.750;2022-10-31T07:43:31;4.28;;;1.17;;
47401;SDS011;33155;48.370;-3.750;2022-10-31T07:45:57;4.68;;;1.08;;
47401;SDS011;33155;48.370;-3.750;2022-10-31T07:48:22;1.48;;;1.20;;
47401;SDS011;33155;48.370;-3.750;2022-10-31T07:50:48;2.13;;;1.20;;
47401;SDS011;33155;48.370;-3.750;2022-10-31T07:53:13;1.60;;;0.98;;
47401;SDS011;33155;48.370;-3.750;2022-10-31T07:55:39;3.40;;;1.60;;
47401;SDS011;33155;48.370;-3.750;2022-10-31T07:58:06;2.53;;;1.00;;
47401;SDS011;33155;48.370;-3.750;2022-10-31T08:00:33;1.63;;;1.20;;
47401;SDS011;33155;48.370;-3.750;2022-10-31T08:03:00;3.08;;;1.40;;
47401;SDS011;33155;48.370;-3.750;2022-10-31T08:05:27;5.85;;;1.90;;
47401;SDS011;33155;48.370;-3.750;2022-10-31T08:07:53;2.42;;;1.05;;
47401;SDS011;33155;48.370;-3.750;2022-10-31T08:10:19;4.75;;;1.67;;
47401;SDS011;33155;48.370;-3.750;2022-10-31T08:12:44;4.40;;;1.80;;
47401;SDS011;33155;48.370;-3.750;2022-10-31T08:15:10;3.92;;;1.50;;
47401;SDS011;33155;48.370;-3.750;2022-10-31T08:17:36;2.47;;;1.20;;
47401;SDS011;33155;48.370;-3.750;2022-10-31T08:20:02;3.42;;;1.50;;
47401;SDS011;33155;48.370;-3.750;2022-10-31T08:22:28;2.47;;;1.08;;
47401;SDS011;33155;48.370;-3.750;2022-10-31T08:24:54;2.33;;;1.20;;
47401;SDS011;33155;48.370;-3.750;2022-10-31T08:27:19;2.08;;;0.98;;
47401;SDS011;33155;48.370;-3.750;2022-10-31T08:29:45;1.25;;;0.93;;
47401;SDS011;33155;48.370;-3.750;2022-10-31T08:32:10;2.00;;;0.85;;
47401;SDS011;33155;48.370;-3.750;2022-10-31T08:34:36;1.77;;;0.93;;
47401;SDS011;33155;48.370;-3.750;2022-10-31T08:37:01;2.50;;;1.15;;
47401;SDS011;33155;48.370;-3.750;2022-10-31T08:39:26;2.17;;;0.80;;
47401;SDS011;33155;48.370;-3.750;2022-10-31T08:41:52;2.42;;;1.10;;
47401;SDS011;33155;48.370;-3.750;2022-10-31T08:44:17;2.53;;;1.77;;
47401;SDS011;33155;48.370;-3.750;2022-10-31T08:46:43;1.13;;;0.90;;
47401;SDS011;33155;48.370;-3.750;2022-10-31T08:49:08;1.33;;;0.95;;
47401;SDS011;33155;48.370;-3.750;2022-10-31T08:51:34;2.60;;;1.38;;
47401;SDS011;33155;48.370;-3.750;2022-10-31T08:53:59;1.80;;;1.00;;
47401;SDS011;33155;48.370;-3.750;2022-10-31T08:56:25;2.58;;;1.70;;
47401;SDS011;33155;48.370;-3.750;2022-10-31T08:58:52;4.55;;;1.85;;
47401;SDS011;33155;48.370;-3.750;2022-10-31T09:01:18;4.30;;;1.70;;
47401;SDS011;33155;48.370;-3.750;2022-10-31T09:03:43;2.42;;;1.48;;
47401;SDS011;33155;48.370;-3.750;2022-10-31T09:06:09;3.05;;;1.73;;
47401;SDS011;33155;48.370;-3.750;2022-10-31T09:08:35;3.05;;;1.73;;
47401;SDS011;33155;48.370;-3.750;2022-10-31T09:11:01;1.85;;;1.40;;
47401;SDS011;33155;48.370;-3.750;2022-10-31T09:13:27;1.23;;;1.10;;
47401;SDS011;33155;48.370;-3.750;2022-10-31T09:15:52;1.92;;;1.17;;
47401;SDS011;33155;48.370;-3.750;2022-10-31T09:18:19;1.75;;;1.27;;
47401;SDS011;33155;48.370;-3.750;2022-10-31T09:20:46;3.10;;;1.20;;
47401;SDS011;33155;48.370;-3.750;2022-10-31T09:23:13;2.00;;;1.27;;
47401;SDS011;33155;48.370;-3.750;2022-10-31T09:25:43;2.35;;;1.27;;
47401;SDS011;33155;48.370;-3.750;2022-10-31T09:28:10;2.88;;;1.40;;
47401;SDS011;33155;48.370;-3.750;2022-10-31T09:30:37;2.40;;;1.17;;
47401;SDS011;33155;48.370;-3.750;2022-10-31T09:33:04;1.88;;;1.17;;
47401;SDS011;33155;48.370;-3.750;2022-10-31T09:35:31;2.03;;;1.10;;
47401;SDS011;33155;48.370;-3.750;2022-10-31T09:37:57;2.08;;;1.00;;
47401;SDS011;33155;48.370;-3.750;2022-10-31T09:40:31;1.98;;;0.75;;
47401;SDS011;33155;48.370;-3.750;2022-10-31T09:43:02;2.15;;;0.80;;
47401;SDS011;33155;48.370;-3.750;2022-10-31T09:45:36;1.05;;;0.73;;
47401;SDS011;33155;48.370;-3.750;2022-10-31T09:51:00;1.60;;;0.98;;
47401;SDS011;33155;48.370;-3.750;2022-10-31T09:55:56;0.68;;;0.60;;
47401;SDS011;33155;48.370;-3.750;2022-10-31T09:58:23;1.55;;;0.95;;
47401;SDS011;33155;48.370;-3.750;2022-10-31T10:00:50;1.13;;;0.70;;
47401;SDS011;33155;48.370;-3.750;2022-10-31T10:06:02;1.45;;;0.80;;
47401;SDS011;33155;48.370;-3.750;2022-10-31T10:08:35;0.93;;;0.82;;
47401;SDS011;33155;48.370;-3.750;2022-10-31T10:30:13;1.60;;;0.80;;
47401;SDS011;33155;48.370;-3.750;2022-10-31T10:32:48;1.83;;;1.10;;
47401;SDS011;33155;48.370;-3.750;2022-10-31T10:35:21;1.33;;;0.85;;
47401;SDS011;33155;48.370;-3.750;2022-10-31T10:37:48;2.35;;;0.80;;
47401;SDS011;33155;48.370;-3.750;2022-10-31T10:40:17;1.67;;;1.00;;
47401;SDS011;33155;48.370;-3.750;2022-10-31T10:43:10;2.30;;;0.98;;
47401;SDS011;33155;48.370;-3.750;2022-10-31T10:49:09;3.05;;;1.10;;
47401;SDS011;33155;48.370;-3.750;2022-10-31T10:59:48;3.33;;;1.25;;
47401;SDS011;33155;48.370;-3.750;2022-10-31T11:02:18;3.42;;;1.75;;
47401;SDS011;33155;48.370;-3.750;2022-10-31T11:04:47;1.42;;;1.02;;
47401;SDS011;33155;48.370;-3.750;2022-10-31T11:07:15;2.83;;;1.30;;
47401;SDS011;33155;48.370;-3.750;2022-10-31T11:09:41;2.05;;;1.40;;
47401;SDS011;33155;48.370;-3.750;2022-10-31T11:12:17;1.60;;;0.98;;
47401;SDS011;33155;48.370;-3.750;2022-10-31T11:14:57;1.25;;;0.90;;
47401;SDS011;33155;48.370;-3.750;2022-10-31T11:20:02;1.90;;;1.50;;
47401;SDS011;33155;48.370;-3.750;2022-10-31T11:22:30;2.60;;;1.63;;
47401;SDS011;33155;48.370;-3.750;2022-10-31T11:24:56;1.27;;;0.85;;
47401;SDS011;33155;48.370;-3.750;2022-10-31T11:27:23;3.05;;;1.40;;
47401;SDS011;33155;48.370;-3.750;2022-10-31T11:29:49;1.42;;;1.02;;
47401;SDS011;33155;48.370;-3.750;2022-10-31T11:32:22;1.80;;;1.10;;
47401;SDS011;33155;48.370;-3.750;2022-10-31T11:34:59;1.88;;;1.42;;
47401;SDS011;33155;48.370;-3.750;2022-10-31T11:37:30;1.63;;;1.25;;
47401;SDS011;33155;48.370;-3.750;2022-10-31T11:40:00;2.10;;;1.17;;
47401;SDS011;33155;48.370;-3.750;2022-10-31T11:42:30;1.75;;;1.30;;
47401;SDS011;33155;48.370;-3.750;2022-10-31T11:45:06;3.08;;;1.63;;
47401;SDS011;33155;48.370;-3.750;2022-10-31T11:47:40;3.13;;;1.70;;
47401;SDS011;33155;48.370;-3.750;2022-10-31T11:50:09;2.90;;;1.77;;
47401;SDS011;33155;48.370;-3.750;2022-10-31T11:52:36;2.92;;;1.95;;
47401;SDS011;33155;48.370;-3.750;2022-10-31T11:57:50;2.55;;;1.60;;
47401;SDS011;33155;48.370;-3.750;2022-10-31T12:00:32;2.17;;;1.70;;
47401;SDS011;33155;48.370;-3.750;2022-10-31T12:03:10;3.25;;;1.60;;
47401;SDS011;33155;48.370;-3.750;2022-10-31T12:05:39;3.53;;;2.30;;
47401;SDS011;33155;48.370;-3.750;2022-10-31T12:08:07;2.83;;;2.03;;
47401;SDS011;33155;48.370;-3.750;2022-10-31T12:13:40;3.83;;;2.25;;
47401;SDS011;33155;48.370;-3.750;2022-10-31T12:16:18;5.75;;;2.38;;
47401;SDS011;33155;48.370;-3.750;2022-10-31T12:24:51;2.95;;;2.20;;
47401;SDS011;33155;48.370;-3.750;2022-10-31T12:27:28;3.10;;;2.30;;
47401;SDS011;33155;48.370;-3.750;2022-10-31T12:30:15;2.97;;;2.33;;
47401;SDS011;33155;48.370;-3.750;2022-10-31T12:35:24;4.45;;;2.85;;
47401;SDS011;33155;48.370;-3.750;2022-10-31T12:45:55;2.83;;;2.30;;
47401;SDS011;33155;48.370;-3.750;2022-10-31T13:01:57;4.10;;;3.40;;
47401;SDS011;33155;48.370;-3.750;2022-10-31T13:07:12;5.65;;;3.45;;
47401;SDS011;33155;48.370;-3.750;2022-10-31T13:10:00;6.38;;;4.43;;
47401;SDS011;33155;48.370;-3.750;2022-10-31T13:12:29;6.85;;;4.30;;
47401;SDS011;33155;48.370;-3.750;2022-10-31T13:14:59;5.45;;;3.90;;
47401;SDS011;33155;48.370;-3.750;2022-10-31T13:17:30;7.25;;;4.68;;
47401;SDS011;33155;48.370;-3.750;2022-10-31T13:20:12;8.10;;;5.28;;
47401;SDS011;33155;48.370;-3.750;2022-10-31T13:22:42;5.22;;;4.15;;
47401;SDS011;33155;48.370;-3.750;2022-10-31T13:30:18;8.15;;;4.53;;
47401;SDS011;33155;48.370;-3.750;2022-10-31T13:35:25;4.43;;;3.35;;
47401;SDS011;33155;48.370;-3.750;2022-10-31T13:38:39;7.13;;;5.03;;
47401;SDS011;33155;48.370;-3.750;2022-10-31T13:46:51;4.25;;;3.58;;
47401;SDS011;33155;48.370;-3.750;2022-10-31T13:49:23;4.07;;;3.65;;
47401;SDS011;33155;48.370;-3.750;2022-10-31T13:51:50;7.13;;;4.50;;
47401;SDS011;33155;48.370;-3.750;2022-10-31T13:54:20;7.30;;;3.83;;
47401;SDS011;33155;48.370;-3.750;2022-10-31T13:56:50;5.57;;;4.03;;
47401;SDS011;33155;48.370;-3.750;2022-10-31T14:01:53;4.97;;;3.65;;
47401;SDS011;33155;48.370;-3.750;2022-10-31T14:04:24;6.35;;;4.15;;
47401;SDS011;33155;48.370;-3.750;2022-10-31T14:09:31;5.47;;;4.13;;
47401;SDS011;33155;48.370;-3.750;2022-10-31T14:12:09;8.63;;;4.72;;
47401;SDS011;33155;48.370;-3.750;2022-10-31T14:14:47;6.07;;;3.40;;
47401;SDS011;33155;48.370;-3.750;2022-10-31T14:17:16;5.68;;;4.18;;
47401;SDS011;33155;48.370;-3.750;2022-10-31T14:19:58;9.18;;;4.15;;
47401;SDS011;33155;48.370;-3.750;2022-10-31T14:22:29;9.30;;;3.58;;
47401;SDS011;33155;48.370;-3.750;2022-10-31T14:24:57;11.88;;;5.38;;
47401;SDS011;33155;48.370;-3.750;2022-10-31T14:29:51;8.48;;;5.03;;
47401;SDS011;33155;48.370;-3.750;2022-10-31T14:32:24;6.60;;;4.55;;
47401;SDS011;33155;48.370;-3.750;2022-10-31T14:46:01;7.38;;;3.80;;
47401;SDS011;33155;48.370;-3.750;2022-10-31T14:51:25;5.35;;;3.50;;
47401;SDS011;33155;48.370;-3.750;2022-10-31T14:53:56;6.50;;;3.67;;
47401;SDS011;33155;48.370;-3.750;2022-10-31T14:56:26;8.05;;;3.85;;
47401;SDS011;33155;48.370;-3.750;2022-10-31T14:58:53;6.38;;;3.50;;
47401;SDS011;33155;48.370;-3.750;2022-10-31T15:01:26;5.05;;;3.15;;
47401;SDS011;33155;48.370;-3.750;2022-10-31T15:03:53;7.95;;;3.50;;
47401;SDS011;33155;48.370;-3.750;2022-10-31T15:06:23;7.85;;;3.25;;
47401;SDS011;33155;48.370;-3.750;2022-10-31T15:08:50;5.80;;;3.10;;
47401;SDS011;33155;48.370;-3.750;2022-10-31T15:11:18;6.13;;;3.30;;
47401;SDS011;33155;48.370;-3.750;2022-10-31T15:13:48;5.28;;;3.22;;
47401;SDS011;33155;48.370;-3.750;2022-10-31T15:16:25;4.03;;;2.78;;
47401;SDS011;33155;48.370;-3.750;2022-10-31T15:18:55;8.30;;;3.70;;
47401;SDS011;33155;48.370;-3.750;2022-10-31T15:21:22;5.05;;;2.50;;
47401;SDS011;33155;48.370;-3.750;2022-10-31T15:23:50;4.63;;;2.67;;
47401;SDS011;33155;48.370;-3.750;2022-10-31T15:26:18;4.72;;;2.70;;
47401;SDS011;33155;48.370;-3.750;2022-10-31T15:28:44;4.57;;;2.60;;
47401;SDS011;33155;48.370;-3.750;2022-10-31T15:31:17;4.50;;;2.03;;
47401;SDS011;33155;48.370;-3.750;2022-10-31T15:33:44;4.72;;;2.33;;
47401;SDS011;33155;48.370;-3.750;2022-10-31T15:36:17;5.05;;;1.85;;
47401;SDS011;33155;48.370;-3.750;2022-10-31T15:38:44;3.47;;;2.33;;
47401;SDS011;33155;48.370;-3.750;2022-10-31T15:41:30;4.93;;;2.05;;
47401;SDS011;33155;48.370;-3.750;2022-10-31T15:44:16;5.32;;;1.77;;
47401;SDS011;33155;48.370;-3.750;2022-10-31T15:46:44;3.50;;;1.65;;
47401;SDS011;33155;48.370;-3.750;2022-10-31T15:49:26;3.45;;;1.58;;
47401;SDS011;33155;48.370;-3.750;2022-10-31T15:51:52;1.70;;;1.20;;
47401;SDS011;33155;48.370;-3.750;2022-10-31T15:54:18;5.70;;;1.92;;
47401;SDS011;33155;48.370;-3.750;2022-10-31T15:56:43;1.67;;;1.00;;
47401;SDS011;33155;48.370;-3.750;2022-10-31T15:59:16;3.80;;;1.65;;
47401;SDS011;33155;48.370;-3.750;2022-10-31T16:01:55;1.77;;;0.80;;
47401;SDS011;33155;48.370;-3.750;2022-10-31T16:04:25;2.33;;;1.10;;
47401;SDS011;33155;48.370;-3.750;2022-10-31T16:07:12;0.80;;;0.50;;
47401;SDS011;33155;48.370;-3.750;2022-10-31T16:12:46;2.58;;;0.60;;
47401;SDS011;33155;48.370;-3.750;2022-10-31T16:15:15;1.65;;;0.40;;
47401;SDS011;33155;48.370;-3.750;2022-10-31T16:17:42;1.90;;;0.35;;
47401;SDS011;33155;48.370;-3.750;2022-10-31T16:20:21;0.73;;;0.30;;
47401;SDS011;33155;48.370;-3.750;2022-10-31T16:22:51;0.25;;;0.15;;
47401;SDS011;33155;48.370;-3.750;2022-10-31T16:27:50;0.47;;;0.40;;
47401;SDS011;33155;48.370;-3.750;2022-10-31T16:30:50;0.70;;;0.30;;
47401;SDS011;33155;48.370;-3.750;2022-10-31T16:35:58;0.93;;;0.40;;
47401;SDS011;33155;48.370;-3.750;2022-10-31T16:38:24;0.52;;;0.40;;
47401;SDS011;33155;48.370;-3.750;2022-10-31T16:40:50;1.08;;;0.50;;
47401;SDS011;33155;48.370;-3.750;2022-10-31T16:43:17;1.05;;;0.40;;
47401;SDS011;33155;48.370;-3.750;2022-10-31T16:45:44;1.02;;;0.40;;
47401;SDS011;33155;48.370;-3.750;2022-10-31T16:48:12;1.60;;;0.68;;
47401;SDS011;33155;48.370;-3.750;2022-10-31T16:50:40;0.63;;;0.40;;
47401;SDS011;33155;48.370;-3.750;2022-10-31T16:53:06;0.30;;;0.30;;
47401;SDS011;33155;48.370;-3.750;2022-10-31T16:55:32;0.88;;;0.50;;
47401;SDS011;33155;48.370;-3.750;2022-10-31T16:58:00;0.75;;;0.40;;
47401;SDS011;33155;48.370;-3.750;2022-10-31T17:00:26;1.27;;;0.63;;
47401;SDS011;33155;48.370;-3.750;2022-10-31T17:02:53;1.08;;;0.55;;
47401;SDS011;33155;48.370;-3.750;2022-10-31T17:05:21;0.80;;;0.30;;
47401;SDS011;33155;48.370;-3.750;2022-10-31T17:07:54;1.05;;;0.45;;
47401;SDS011;33155;48.370;-3.750;2022-10-31T17:10:23;0.68;;;0.20;;
47401;SDS011;33155;48.370;-3.750;2022-10-31T17:12:49;0.77;;;0.50;;
47401;SDS011;33155;48.370;-3.750;2022-10-31T17:15:16;0.50;;;0.30;;
47401;SDS011;33155;48.370;-3.750;2022-10-31T17:17:44;0.70;;;0.50;;
47401;SDS011;33155;48.370;-3.750;2022-10-31T17:20:26;1.65;;;0.68;;
47401;SDS011;33155;48.370;-3.750;2022-10-31T17:22:53;2.60;;;0.63;;
47401;SDS011;33155;48.370;-3.750;2022-10-31T17:25:22;3.40;;;0.93;;
